createdAt,value
2017-03-11T00:00:39.512Z,81.62
2017-03-11T00:01:49.446Z,82.57
2017-03-11T00:02:59.244Z,82.28
2017-03-11T00:04:10.187Z,82.38
2017-03-11T00:05:19.869Z,81.52
2017-03-11T00:06:31.641Z,82.48
2017-03-11T00:07:41.713Z,81.52
2017-03-11T00:08:51.578Z,81.05
2017-03-11T00:10:02.364Z,81.33
2017-03-11T00:11:12.186Z,81.33
2017-03-11T00:12:24.130Z,81.9
2017-03-11T00:13:36.048Z,82
2017-03-11T00:14:45.864Z,81.24
2017-03-11T00:15:57.600Z,81.43
2017-03-11T00:17:09.628Z,81.05
2017-03-11T00:18:19.624Z,81.62
2017-03-11T00:19:31.325Z,82.28
2017-03-11T00:20:43.631Z,82.76
2017-03-11T00:21:52.880Z,83.33
2017-03-11T00:23:04.780Z,82.95
2017-03-11T00:24:16.393Z,82.48
2017-03-11T00:25:25.419Z,83.04
2017-03-11T00:26:37.384Z,83.42
2017-03-11T00:27:48.850Z,84.28
2017-03-11T00:28:57.894Z,84.09
2017-03-11T00:30:08.300Z,84.09
2017-03-11T00:31:19.276Z,83.62
2017-03-11T00:32:28.896Z,82.95
2017-03-11T00:33:40.609Z,83.71
2017-03-11T00:34:52.871Z,84.09
2017-03-11T00:36:02.186Z,84.38
2017-03-11T00:37:14.374Z,84.95
2017-03-11T00:38:26.573Z,84.76
2017-03-11T00:39:35.695Z,84.95
2017-03-11T00:40:47.772Z,84.76
2017-03-11T00:42:00.270Z,83.9
2017-03-11T00:43:09.561Z,84.66
2017-03-11T00:44:21.494Z,84.09
2017-03-11T00:45:33.679Z,84
2017-03-11T00:46:42.799Z,84.19
2017-03-11T00:47:54.745Z,84.56
2017-03-11T00:49:05.871Z,84.09
2017-03-11T00:50:16.011Z,83.33
2017-03-11T00:51:28.153Z,82.48
2017-03-11T00:52:38.256Z,82.19
2017-03-11T00:53:48.052Z,82
2017-03-11T00:54:59.047Z,82.19
2017-03-11T00:56:08.967Z,82.28
2017-03-11T00:57:20.682Z,82.28
2017-03-11T00:58:32.262Z,82.57
2017-03-11T00:59:42.095Z,82.19
2017-03-11T01:00:53.931Z,82.91
2017-03-11T01:02:03.292Z,83.19
2017-03-11T01:03:13.530Z,83.58
2017-03-11T01:04:24.718Z,84.05
2017-03-11T01:05:34.161Z,84.66
2017-03-11T01:06:44.377Z,83.95
2017-03-11T01:07:53.738Z,83.58
2017-03-11T01:09:04.925Z,83.86
2017-03-11T01:10:13.937Z,83.95
2017-03-11T01:11:24.493Z,84.14
2017-03-11T01:12:35.618Z,83.95
2017-03-11T01:13:45.994Z,84.52
2017-03-11T01:14:57.827Z,84.33
2017-03-11T01:16:08.922Z,83.29
2017-03-11T01:17:18.735Z,83.67
2017-03-11T01:18:30.820Z,83.95
2017-03-11T01:19:40.205Z,84.24
2017-03-11T01:20:50.542Z,84.24
2017-03-11T01:22:01.525Z,84.33
2017-03-11T01:23:11.350Z,84.24
2017-03-11T01:24:23.555Z,84.24
2017-03-11T01:25:35.673Z,84.72
2017-03-11T01:26:45.130Z,83.86
2017-03-11T01:27:56.848Z,84.43
2017-03-11T01:29:08.855Z,85.1
2017-03-11T01:30:18.674Z,84.72
2017-03-11T01:31:30.645Z,84.62
2017-03-11T01:32:42.567Z,84.72
2017-03-11T01:33:52.443Z,84.72
2017-03-11T01:35:04.418Z,84.24
2017-03-11T01:36:16.318Z,83.95
2017-03-11T01:37:26.020Z,83.48
2017-03-11T01:38:37.765Z,83.86
2017-03-11T01:39:49.794Z,83.86
2017-03-11T01:40:59.693Z,84.05
2017-03-11T01:42:11.253Z,84.05
2017-03-11T01:43:23.296Z,84.33
2017-03-11T01:44:32.855Z,83.76
2017-03-11T01:45:44.881Z,84.05
2017-03-11T01:46:56.982Z,84.14
2017-03-11T01:48:06.328Z,84.14
2017-03-11T01:49:18.639Z,83.95
2017-03-11T01:50:30.698Z,83.58
2017-03-11T01:51:40.344Z,83.67
2017-03-11T01:52:50.510Z,84.33
2017-03-11T01:53:59.557Z,84.52
2017-03-11T01:55:08.871Z,84.33
2017-03-11T01:56:17.887Z,84.52
2017-03-11T01:57:26.902Z,84.05
2017-03-11T01:58:35.917Z,84.05
2017-03-11T01:59:44.931Z,82.53
2017-03-11T02:00:54.247Z,81.48
2017-03-11T02:02:03.274Z,82.34
2017-03-11T02:03:12.309Z,82.62
2017-03-11T02:04:21.346Z,82.71
2017-03-11T02:05:30.370Z,82.34
2017-03-11T02:06:39.669Z,82.43
2017-03-11T02:07:48.705Z,82.81
2017-03-11T02:08:57.741Z,82.81
2017-03-11T02:10:07.282Z,82.91
2017-03-11T02:11:16.298Z,82.91
2017-03-11T02:12:25.576Z,82.24
2017-03-11T02:13:34.607Z,82.24
2017-03-11T02:14:43.736Z,82.24
2017-03-11T02:15:53.167Z,82.15
2017-03-11T02:17:02.202Z,82.05
2017-03-11T02:18:11.487Z,81.48
2017-03-11T02:19:20.626Z,81.44
2017-03-11T02:20:29.860Z,81.54
2017-03-11T02:21:38.891Z,81.63
2017-03-11T02:22:48.325Z,82.1
2017-03-11T02:23:57.602Z,82.01
2017-03-11T02:25:06.619Z,82.2
2017-03-11T02:26:15.624Z,82.01
2017-03-11T02:27:24.641Z,82.49
2017-03-11T02:28:33.661Z,82.68
2017-03-11T02:29:43.378Z,82.96
2017-03-11T02:30:52.521Z,83.15
2017-03-11T02:32:01.568Z,83.25
2017-03-11T02:33:10.593Z,83.34
2017-03-11T02:34:19.717Z,82.77
2017-03-11T02:35:28.990Z,82.87
2017-03-11T02:36:38.027Z,82.96
2017-03-11T02:37:47.043Z,82.58
2017-03-11T02:38:56.075Z,83.06
2017-03-11T02:40:05.100Z,82.87
2017-03-11T02:41:14.377Z,83.15
2017-03-11T02:42:23.405Z,82.29
2017-03-11T02:43:33.435Z,82.01
2017-03-11T02:44:44.636Z,82.49
2017-03-11T02:45:54.482Z,82.1
2017-03-11T02:47:06.535Z,82.49
2017-03-11T02:48:18.573Z,82.2
2017-03-11T02:49:27.963Z,82.29
2017-03-11T02:50:39.875Z,82.58
2017-03-11T02:51:51.147Z,81.73
2017-03-11T02:53:01.062Z,81.92
2017-03-11T02:54:12.916Z,82.2
2017-03-11T02:55:21.943Z,81.35
2017-03-11T02:56:32.522Z,82.1
2017-03-11T02:57:41.546Z,82.49
2017-03-11T02:58:50.936Z,82.49
2017-03-11T02:59:59.971Z,82.58
2017-03-11T03:01:09.200Z,82.01
2017-03-11T03:02:18.646Z,82.29
2017-03-11T03:03:27.905Z,82.58
2017-03-11T03:04:39.797Z,83.06
2017-03-11T03:05:49.622Z,82.01
2017-03-11T03:07:01.219Z,82.87
2017-03-11T03:08:13.151Z,82.2
2017-03-11T03:09:22.839Z,81.82
2017-03-11T03:10:34.722Z,82.39
2017-03-11T03:11:47.097Z,82.68
2017-03-11T03:12:56.252Z,82.96
2017-03-11T03:14:08.508Z,82.96
2017-03-11T03:15:20.536Z,82.77
2017-03-11T03:16:30.003Z,82.96
2017-03-11T03:17:41.790Z,82.2
2017-03-11T03:18:53.866Z,82.1
2017-03-11T03:20:03.299Z,82.49
2017-03-11T03:21:15.470Z,82.77
2017-03-11T03:22:27.991Z,82.96
2017-03-11T03:23:37.409Z,82.87
2017-03-11T03:24:48.852Z,82.68
2017-03-11T03:26:00.832Z,82.87
2017-03-11T03:27:10.530Z,82.96
2017-03-11T03:28:21.452Z,82.68
2017-03-11T03:29:33.260Z,82.77
2017-03-11T03:30:42.998Z,83.15
2017-03-11T03:31:52.407Z,82.96
2017-03-11T03:33:03.691Z,82.58
2017-03-11T03:34:13.036Z,83.06
2017-03-11T03:35:24.751Z,82.96
2017-03-11T03:36:36.777Z,82.01
2017-03-11T03:37:46.293Z,82.01
2017-03-11T03:38:58.429Z,82.29
2017-03-11T03:40:10.556Z,82.1
2017-03-11T03:41:19.767Z,82.2
2017-03-11T03:42:31.800Z,82.1
2017-03-11T03:43:44.036Z,82.58
2017-03-11T03:44:53.470Z,82.39
2017-03-11T03:46:05.373Z,82.68
2017-03-11T03:47:17.551Z,82.87
2017-03-11T03:48:27.021Z,82.49
2017-03-11T03:49:39.006Z,81.97
2017-03-11T03:50:51.220Z,82.58
2017-03-11T03:52:01.173Z,81.59
2017-03-11T03:53:12.485Z,81.12
2017-03-11T03:54:24.845Z,81.3
2017-03-11T03:55:34.171Z,81.21
2017-03-11T03:56:45.958Z,81.21
2017-03-11T03:57:58.613Z,81.87
2017-03-11T03:59:07.744Z,81.59
2017-03-11T04:00:19.611Z,82.16
2017-03-11T04:01:31.924Z,81.59
2017-03-11T04:02:41.317Z,82.07
2017-03-11T04:03:53.274Z,81.21
2017-03-11T04:05:05.578Z,81.4
2017-03-11T04:06:14.959Z,81.21
2017-03-11T04:07:26.814Z,81.02
2017-03-11T04:08:39.260Z,81.21
2017-03-11T04:09:48.629Z,81.21
2017-03-11T04:11:00.245Z,81.21
2017-03-11T04:12:12.786Z,81.3
2017-03-11T04:13:21.828Z,80.83
2017-03-11T04:14:33.852Z,80.45
2017-03-11T04:15:46.567Z,80.64
2017-03-11T04:16:55.594Z,81.21
2017-03-11T04:18:07.556Z,81.68
2017-03-11T04:19:19.983Z,82.16
2017-03-11T04:20:29.178Z,82.64
2017-03-11T04:21:41.006Z,82.54
2017-03-11T04:22:53.416Z,82.73
2017-03-11T04:24:02.525Z,82.92
2017-03-11T04:25:14.543Z,82.92
2017-03-11T04:26:26.973Z,83.01
2017-03-11T04:27:36.296Z,82.73
2017-03-11T04:28:48.134Z,82.16
2017-03-11T04:30:00.530Z,82.26
2017-03-11T04:31:09.559Z,82.82
2017-03-11T04:32:21.448Z,82.82
2017-03-11T04:33:34.015Z,82.35
2017-03-11T04:34:43.048Z,82.16
2017-03-11T04:35:55.133Z,82.26
2017-03-11T04:37:07.081Z,82.54
2017-03-11T04:38:16.120Z,81.97
2017-03-11T04:39:28.903Z,81.97
2017-03-11T04:40:41.076Z,81.3
2017-03-11T04:41:50.308Z,81.21
2017-03-11T04:42:59.856Z,81.97
2017-03-11T04:44:08.937Z,82.16
2017-03-11T04:45:19.313Z,82.35
2017-03-11T04:46:28.330Z,82.45
2017-03-11T04:47:39.125Z,82.64
2017-03-11T04:48:48.142Z,82.54
2017-03-11T04:49:58.798Z,82.54
2017-03-11T04:51:10.132Z,81.97
2017-03-11T04:52:19.868Z,81.68
2017-03-11T04:53:32.056Z,81.4
2017-03-11T04:54:43.612Z,81.45
2017-03-11T04:55:53.566Z,82.16
2017-03-11T04:57:02.977Z,81.93
2017-03-11T04:58:12.009Z,81.93
2017-03-11T04:59:21.024Z,82.03
2017-03-11T05:00:30.145Z,81.65
2017-03-11T05:01:39.305Z,81.26
2017-03-11T05:02:48.572Z,81.74
2017-03-11T05:03:57.704Z,81.26
2017-03-11T05:05:06.840Z,81.12
2017-03-11T05:06:15.856Z,81.21
2017-03-11T05:07:24.972Z,81.97
2017-03-11T05:08:34.238Z,81.59
2017-03-11T05:09:43.345Z,81.07
2017-03-11T05:10:52.368Z,82.21
2017-03-11T05:12:01.393Z,81.74
2017-03-11T05:13:10.518Z,82.4
2017-03-11T05:14:19.790Z,83.07
2017-03-11T05:15:28.822Z,82.88
2017-03-11T05:16:37.977Z,83.26
2017-03-11T05:17:47.027Z,82.88
2017-03-11T05:18:56.557Z,82.88
2017-03-11T05:20:05.838Z,82.73
2017-03-11T05:21:15.279Z,82.07
2017-03-11T05:22:24.302Z,82.35
2017-03-11T05:23:33.337Z,82.35
2017-03-11T05:24:42.374Z,82.45
2017-03-11T05:25:51.650Z,82.45
2017-03-11T05:27:01.105Z,81.97
2017-03-11T05:28:10.126Z,81.4
2017-03-11T05:29:19.156Z,81.59
2017-03-11T05:30:28.202Z,82.07
2017-03-11T05:31:37.884Z,81.97
2017-03-11T05:32:47.024Z,82.16
2017-03-11T05:33:56.482Z,82.35
2017-03-11T05:35:05.498Z,81.97
2017-03-11T05:36:14.932Z,81.78
2017-03-11T05:37:24.241Z,82.16
2017-03-11T05:38:33.264Z,81.45
2017-03-11T05:39:42.298Z,81.3
2017-03-11T05:40:51.404Z,81.59
2017-03-11T05:42:00.440Z,81.59
2017-03-11T05:43:09.820Z,82.16
2017-03-11T05:44:18.850Z,82.07
2017-03-11T05:45:27.874Z,82.54
2017-03-11T05:46:36.918Z,81.49
2017-03-11T05:47:45.935Z,81.3
2017-03-11T05:48:55.297Z,81.3
2017-03-11T05:50:04.406Z,81.4
2017-03-11T05:51:13.436Z,81.74
2017-03-11T05:52:22.461Z,82.26
2017-03-11T05:53:31.483Z,81.97
2017-03-11T05:54:40.809Z,82.26
2017-03-11T05:55:49.832Z,82.12
2017-03-11T05:56:58.864Z,82.26
2017-03-11T05:58:07.902Z,81.87
2017-03-11T05:59:16.942Z,82.26
2017-03-11T06:00:26.235Z,82.16
2017-03-11T06:01:35.301Z,82.26
2017-03-11T06:02:44.300Z,82.45
2017-03-11T06:03:53.315Z,81.87
2017-03-11T06:05:02.339Z,81.3
2017-03-11T06:06:12.063Z,81.59
2017-03-11T06:07:21.083Z,81.21
2017-03-11T06:08:30.109Z,81.12
2017-03-11T06:09:39.223Z,81.68
2017-03-11T06:10:48.256Z,81.68
2017-03-11T06:11:57.531Z,81.59
2017-03-11T06:13:06.562Z,81.49
2017-03-11T06:14:15.592Z,81.02
2017-03-11T06:15:24.618Z,81.4
2017-03-11T06:16:33.638Z,81.49
2017-03-11T06:17:43.011Z,81.21
2017-03-11T06:18:52.031Z,80.93
2017-03-11T06:20:01.073Z,80.83
2017-03-11T06:21:10.116Z,80.93
2017-03-11T06:22:19.223Z,80.64
2017-03-11T06:23:28.582Z,81.12
2017-03-11T06:24:37.692Z,81.12
2017-03-11T06:25:46.728Z,81.12
2017-03-11T06:26:55.773Z,81.4
2017-03-11T06:28:04.822Z,81.4
2017-03-11T06:29:14.084Z,81.3
2017-03-11T06:30:23.105Z,81.4
2017-03-11T06:31:32.125Z,81.49
2017-03-11T06:32:41.157Z,80.74
2017-03-11T06:33:50.272Z,81.12
2017-03-11T06:34:59.632Z,81.12
2017-03-11T06:36:09.086Z,81.3
2017-03-11T06:37:18.091Z,80.83
2017-03-11T06:38:27.125Z,80.93
2017-03-11T06:39:36.244Z,80.64
2017-03-11T06:40:45.706Z,80.83
2017-03-11T06:41:54.727Z,80.45
2017-03-11T06:43:03.770Z,81.4
2017-03-11T06:44:12.801Z,80.64
2017-03-11T06:45:21.833Z,81.12
2017-03-11T06:46:31.107Z,81.21
2017-03-11T06:47:40.274Z,80.64
2017-03-11T06:48:49.833Z,80.45
2017-03-11T06:49:58.861Z,80.74
2017-03-11T06:51:08.108Z,80.64
2017-03-11T06:52:17.660Z,80.83
2017-03-11T06:53:27.205Z,81.12
2017-03-11T06:54:36.227Z,81.12
2017-03-11T06:55:45.390Z,80.64
2017-03-11T06:56:54.406Z,80.93
2017-03-11T06:58:03.939Z,81.12
2017-03-11T06:59:13.054Z,80.83
2017-03-11T07:00:22.209Z,80.64
2017-03-11T07:01:31.397Z,80.26
2017-03-11T07:02:40.635Z,80.74
2017-03-11T07:03:50.139Z,80.45
2017-03-11T07:04:59.219Z,79.88
2017-03-11T07:06:08.307Z,80.07
2017-03-11T07:07:17.365Z,80.64
2017-03-11T07:08:26.379Z,80.45
2017-03-11T07:09:35.805Z,80.26
2017-03-11T07:10:45.211Z,80.26
2017-03-11T07:11:54.662Z,80.07
2017-03-11T07:13:03.861Z,79.69
2017-03-11T07:14:12.890Z,80.21
2017-03-11T07:15:22.227Z,79.79
2017-03-11T07:16:31.246Z,80.21
2017-03-11T07:17:40.619Z,79.54
2017-03-11T07:18:50.519Z,79.83
2017-03-11T07:19:59.562Z,79.54
2017-03-11T07:21:08.959Z,80.02
2017-03-11T07:22:18.041Z,80.02
2017-03-11T07:23:27.159Z,79.73
2017-03-11T07:24:36.326Z,79.35
2017-03-11T07:25:46.361Z,79.16
2017-03-11T07:26:55.643Z,79.63
2017-03-11T07:28:04.648Z,79.63
2017-03-11T07:29:13.981Z,79.06
2017-03-11T07:30:23.004Z,79.25
2017-03-11T07:31:32.038Z,79.35
2017-03-11T07:32:41.464Z,79.35
2017-03-11T07:33:50.845Z,78.21
2017-03-11T07:35:00.072Z,78.59
2017-03-11T07:36:09.424Z,78.97
2017-03-11T07:37:20.882Z,78.97
2017-03-11T07:38:30.287Z,79.35
2017-03-11T07:39:39.296Z,79.25
2017-03-11T07:40:48.332Z,79.16
2017-03-11T07:41:57.360Z,79.35
2017-03-11T07:43:06.380Z,79.44
2017-03-11T07:44:16.038Z,79.16
2017-03-11T07:45:25.067Z,78.88
2017-03-11T07:46:34.091Z,78.72
2017-03-11T07:47:43.220Z,79.16
2017-03-11T07:48:52.337Z,78.72
2017-03-11T07:50:02.079Z,78.44
2017-03-11T07:51:11.109Z,77.77
2017-03-11T07:52:20.217Z,77.77
2017-03-11T07:53:29.371Z,78.06
2017-03-11T07:54:38.396Z,77.97
2017-03-11T07:55:47.727Z,78.06
2017-03-11T07:56:56.752Z,77.68
2017-03-11T07:58:05.795Z,77.11
2017-03-11T07:59:14.814Z,76.82
2017-03-11T08:00:23.833Z,76.44
2017-03-11T08:01:33.568Z,76.82
2017-03-11T08:02:42.586Z,76.92
2017-03-11T08:03:51.614Z,77.2
2017-03-11T08:05:01.070Z,76.82
2017-03-11T08:06:10.313Z,76.82
2017-03-11T08:07:19.807Z,76.86
2017-03-11T08:08:28.920Z,76.44
2017-03-11T08:09:38.102Z,76.16
2017-03-11T08:10:47.138Z,76.54
2017-03-11T08:11:56.636Z,76.48
2017-03-11T08:13:05.949Z,76.01
2017-03-11T08:14:15.172Z,76.29
2017-03-11T08:15:24.207Z,75.53
2017-03-11T08:16:33.327Z,75.24
2017-03-11T08:17:42.397Z,75.53
2017-03-11T08:18:51.713Z,75.81
2017-03-11T08:20:01.335Z,75.34
2017-03-11T08:21:10.391Z,75.53
2017-03-11T08:22:19.525Z,75.43
2017-03-11T08:23:28.664Z,75.53
2017-03-11T08:24:38.009Z,75.72
2017-03-11T08:25:47.002Z,74.87
2017-03-11T08:26:56.079Z,74.39
2017-03-11T08:28:05.563Z,73.91
2017-03-11T08:29:15.048Z,74.48
2017-03-11T08:30:24.541Z,74.77
2017-03-11T08:31:33.555Z,74.29
2017-03-11T08:32:42.580Z,74.67
2017-03-11T08:33:51.589Z,74.67
2017-03-11T08:35:00.635Z,74.87
2017-03-11T08:36:09.877Z,74.58
2017-03-11T08:37:18.887Z,74.62
2017-03-11T08:38:28.120Z,74.62
2017-03-11T08:39:37.146Z,73.95
2017-03-11T08:40:46.264Z,74.14
2017-03-11T08:41:55.582Z,74.14
2017-03-11T08:43:04.734Z,73.76
2017-03-11T08:44:14.283Z,73.76
2017-03-11T08:45:25.298Z,73.47
2017-03-11T08:46:37.988Z,73.66
2017-03-11T08:47:47.278Z,73.38
2017-03-11T08:48:56.665Z,73.47
2017-03-11T08:50:05.664Z,72.71
2017-03-11T08:51:14.655Z,73
2017-03-11T08:52:23.684Z,72.71
2017-03-11T08:53:33.084Z,72.71
2017-03-11T08:54:42.212Z,72.62
2017-03-11T08:55:51.254Z,72.62
2017-03-11T08:57:00.241Z,72.33
2017-03-11T08:58:09.221Z,72.14
2017-03-11T08:59:18.900Z,72.24
2017-03-11T09:00:28.051Z,71.86
2017-03-11T09:01:37.164Z,71.8
2017-03-11T09:02:46.175Z,71.89
2017-03-11T09:03:55.154Z,70.75
2017-03-11T09:05:04.395Z,71.03
2017-03-11T09:06:13.457Z,70.65
2017-03-11T09:07:22.519Z,70.18
2017-03-11T09:08:31.518Z,70.84
2017-03-11T09:09:40.595Z,70.84
2017-03-11T09:10:49.935Z,70.08
2017-03-11T09:11:59.551Z,70.47
2017-03-11T09:13:08.532Z,70.18
2017-03-11T09:14:17.523Z,70.47
2017-03-11T09:15:26.675Z,70.08
2017-03-11T09:16:35.982Z,70.56
2017-03-11T09:17:45.000Z,70.27
2017-03-11T09:18:54.622Z,70.65
2017-03-11T09:20:03.808Z,70.27
2017-03-11T09:21:12.877Z,69.99
2017-03-11T09:22:22.110Z,69.6
2017-03-11T09:23:31.112Z,69.51
2017-03-11T09:24:40.120Z,69.89
2017-03-11T09:25:49.991Z,69.42
2017-03-11T09:26:59.090Z,69.13
2017-03-11T09:28:08.734Z,69.23
2017-03-11T09:29:17.731Z,69.51
2017-03-11T09:30:26.724Z,69.23
2017-03-11T09:31:35.736Z,68.84
2017-03-11T09:32:44.752Z,69.04
2017-03-11T09:33:54.065Z,68.84
2017-03-11T09:35:03.056Z,68.56
2017-03-11T09:36:12.271Z,68.84
2017-03-11T09:37:21.335Z,68.37
2017-03-11T09:38:30.831Z,68.37
2017-03-11T09:39:40.279Z,67.7
2017-03-11T09:40:49.697Z,67.89
2017-03-11T09:41:58.722Z,67.8
2017-03-11T09:43:07.738Z,68.18
2017-03-11T09:44:17.053Z,67.7
2017-03-11T09:45:26.902Z,67.61
2017-03-11T09:46:35.900Z,67.32
2017-03-11T09:47:44.891Z,68.08
2017-03-11T09:48:54.294Z,67.51
2017-03-11T09:50:03.722Z,67.41
2017-03-11T09:51:13.073Z,67.51
2017-03-11T09:52:22.209Z,67.03
2017-03-11T09:53:31.273Z,67.07
2017-03-11T09:54:40.403Z,66.78
2017-03-11T09:55:49.961Z,66.97
2017-03-11T09:56:59.248Z,66.4
2017-03-11T09:58:08.852Z,66.5
2017-03-11T09:59:18.403Z,66.5
2017-03-11T10:00:27.431Z,66.5
2017-03-11T10:01:36.792Z,66.02
2017-03-11T10:02:46.133Z,66.02
2017-03-11T10:03:55.112Z,65.83
2017-03-11T10:05:04.291Z,66.21
2017-03-11T10:06:13.328Z,65.16
2017-03-11T10:07:22.847Z,65.55
2017-03-11T10:08:32.100Z,65.55
2017-03-11T10:09:41.216Z,65.45
2017-03-11T10:10:50.364Z,65.16
2017-03-11T10:11:59.410Z,64.97
2017-03-11T10:13:08.384Z,64.78
2017-03-11T10:14:17.720Z,64.69
2017-03-11T10:15:26.720Z,64.5
2017-03-11T10:16:36.037Z,64.87
2017-03-11T10:17:45.259Z,64.59
2017-03-11T10:18:54.291Z,64.24
2017-03-11T10:20:04.221Z,64.05
2017-03-11T10:21:13.438Z,63.86
2017-03-11T10:22:22.550Z,63.83
2017-03-11T10:23:31.915Z,64.02
2017-03-11T10:24:41.015Z,64.12
2017-03-11T10:25:50.509Z,63.92
2017-03-11T10:27:00.110Z,64.21
2017-03-11T10:28:09.101Z,63.92
2017-03-11T10:29:18.124Z,63.92
2017-03-11T10:30:27.135Z,64.21
2017-03-11T10:31:36.373Z,63.83
2017-03-11T10:32:45.442Z,63.83
2017-03-11T10:33:54.474Z,63.92
2017-03-11T10:35:03.466Z,63.45
2017-03-11T10:36:12.617Z,64.02
2017-03-11T10:37:22.446Z,63.83
2017-03-11T10:38:31.477Z,64.5
2017-03-11T10:39:40.554Z,64.4
2017-03-11T10:40:49.641Z,63.83
2017-03-11T10:41:58.639Z,63.96
2017-03-11T10:43:07.965Z,64.31
2017-03-11T10:44:17.073Z,63.92
2017-03-11T10:45:26.174Z,63.83
2017-03-11T10:46:35.171Z,64.31
2017-03-11T10:47:44.154Z,63.83
2017-03-11T10:48:53.484Z,64.21
2017-03-11T10:50:02.574Z,63.92
2017-03-11T10:51:11.577Z,64.02
2017-03-11T10:52:20.567Z,64.87
2017-03-11T10:53:29.598Z,64.69
2017-03-11T10:54:38.949Z,64.87
2017-03-11T10:55:47.963Z,64.69
2017-03-11T10:56:56.944Z,64.78
2017-03-11T10:58:05.950Z,64.78
2017-03-11T10:59:14.947Z,64.5
2017-03-11T11:00:24.256Z,64.69
2017-03-11T11:01:33.237Z,64.69
2017-03-11T11:02:42.224Z,64.15
2017-03-11T11:03:51.320Z,64.43
2017-03-11T11:05:00.376Z,63.83
2017-03-11T11:06:09.659Z,63.76
2017-03-11T11:07:19.079Z,63.67
2017-03-11T11:08:28.072Z,63
2017-03-11T11:09:37.076Z,62.43
2017-03-11T11:10:46.165Z,63.29
2017-03-11T11:11:55.905Z,63.57
2017-03-11T11:13:04.883Z,63.76
2017-03-11T11:14:13.900Z,63.67
2017-03-11T11:15:22.899Z,63.57
2017-03-11T11:16:31.901Z,63.29
2017-03-11T11:17:41.683Z,63.29
2017-03-11T11:18:50.876Z,63
2017-03-11T11:19:59.961Z,62.62
2017-03-11T11:21:09.387Z,62.91
2017-03-11T11:22:18.397Z,62.18
2017-03-11T11:23:27.644Z,62.24
2017-03-11T11:24:36.648Z,62.37
2017-03-11T11:25:45.734Z,62.65
2017-03-11T11:26:54.711Z,61.99
2017-03-11T11:28:03.711Z,62.18
2017-03-11T11:29:12.996Z,61.22
2017-03-11T11:30:22.555Z,61.51
2017-03-11T11:31:31.597Z,61.29
2017-03-11T11:32:40.599Z,61.57
2017-03-11T11:33:49.813Z,61.67
2017-03-11T11:34:59.076Z,61.67
2017-03-11T11:36:08.137Z,62.05
2017-03-11T11:37:17.152Z,62.05
2017-03-11T11:38:26.171Z,61.96
2017-03-11T11:39:35.241Z,61.96
2017-03-11T11:40:44.669Z,62.05
2017-03-11T11:41:53.742Z,61.6
2017-03-11T11:43:02.836Z,61.8
2017-03-11T11:44:11.862Z,61.32
2017-03-11T11:45:20.869Z,61.7
2017-03-11T11:46:30.107Z,61.89
2017-03-11T11:47:39.178Z,61.32
2017-03-11T11:48:48.445Z,61.41
2017-03-11T11:49:57.448Z,61.41
2017-03-11T11:51:06.444Z,61.41
2017-03-11T11:52:16.047Z,60.94
2017-03-11T11:53:25.712Z,61.13
2017-03-11T11:54:34.696Z,60.65
2017-03-11T11:55:43.719Z,60.46
2017-03-11T11:56:52.847Z,60.65
2017-03-11T11:58:02.195Z,60.65
2017-03-11T11:59:11.199Z,61.51
2017-03-11T12:00:20.336Z,61.13
2017-03-11T12:01:29.325Z,61.41
2017-03-11T12:02:38.312Z,61.04
2017-03-11T12:03:47.318Z,60.75
2017-03-11T12:04:56.332Z,60.84
2017-03-11T12:06:05.367Z,60.75
2017-03-11T12:07:14.462Z,60.94
2017-03-11T12:08:23.533Z,60.84
2017-03-11T12:09:32.530Z,61.6
2017-03-11T12:10:41.554Z,61.51
2017-03-11T12:11:50.536Z,61.6
2017-03-11T12:12:59.522Z,61.32
2017-03-11T12:14:08.770Z,60.94
2017-03-11T12:15:17.883Z,61.32
2017-03-11T12:16:26.866Z,61.6
2017-03-11T12:17:36.007Z,61.32
2017-03-11T12:18:45.677Z,61.22
2017-03-11T12:19:54.841Z,61.22
2017-03-11T12:21:03.899Z,61.6
2017-03-11T12:22:13.456Z,61.41
2017-03-11T12:23:22.454Z,61.67
2017-03-11T12:24:31.750Z,61.32
2017-03-11T12:25:40.764Z,61.22
2017-03-11T12:26:50.688Z,61.13
2017-03-11T12:27:59.763Z,60.55
2017-03-11T12:29:08.761Z,61.04
2017-03-11T12:30:18.042Z,60.65
2017-03-11T12:31:27.039Z,61.04
2017-03-11T12:32:36.111Z,61.13
2017-03-11T12:33:45.276Z,61
2017-03-11T12:34:54.606Z,61.57
2017-03-11T12:36:04.019Z,61.67
2017-03-11T12:37:13.109Z,62.05
2017-03-11T12:38:22.320Z,62.81
2017-03-11T12:39:31.445Z,62.62
2017-03-11T12:40:40.443Z,62.62
2017-03-11T12:41:50.152Z,62.62
2017-03-11T12:42:59.137Z,62.72
2017-03-11T12:44:08.133Z,62.62
2017-03-11T12:45:17.280Z,62.24
2017-03-11T12:46:28.620Z,62.21
2017-03-11T12:47:42.452Z,62.59
2017-03-11T12:48:51.888Z,62.68
2017-03-11T12:50:00.873Z,62.49
2017-03-11T12:51:10.270Z,62.81
2017-03-11T12:52:19.251Z,62.81
2017-03-11T12:53:28.493Z,62.81
2017-03-11T12:54:37.589Z,62.15
2017-03-11T12:55:46.997Z,61.86
2017-03-11T12:56:56.384Z,61.86
2017-03-11T12:58:05.373Z,61.76
2017-03-11T12:59:15.604Z,61.57
2017-03-11T13:00:26.078Z,61.51
2017-03-11T13:01:35.065Z,61.13
2017-03-11T13:02:44.063Z,60.65
2017-03-11T13:03:53.055Z,60.46
2017-03-11T13:05:02.301Z,60.46
2017-03-11T13:06:11.300Z,60.46
2017-03-11T13:07:20.479Z,60.55
2017-03-11T13:08:29.996Z,59.48
2017-03-11T13:09:39.006Z,59.89
2017-03-11T13:10:48.321Z,59.38
2017-03-11T13:11:57.409Z,59.95
2017-03-11T13:13:06.405Z,59.57
2017-03-11T13:14:15.581Z,59.86
2017-03-11T13:15:24.583Z,59.19
2017-03-11T13:16:33.837Z,59
2017-03-11T13:17:42.826Z,59.38
2017-03-11T13:18:51.936Z,59.38
2017-03-11T13:20:01.037Z,59.28
2017-03-11T13:21:10.136Z,59.28
2017-03-11T13:22:19.794Z,59.48
2017-03-11T13:23:28.797Z,59.67
2017-03-11T13:24:37.793Z,59.95
2017-03-11T13:25:46.801Z,59.57
2017-03-11T13:26:55.822Z,59.57
2017-03-11T13:28:05.060Z,59.38
2017-03-11T13:29:14.044Z,59.89
2017-03-11T13:30:23.075Z,59.28
2017-03-11T13:31:32.065Z,58.94
2017-03-11T13:32:41.135Z,59.12
2017-03-11T13:33:50.623Z,57.6
2017-03-11T13:34:59.636Z,57.03
2017-03-11T13:36:08.631Z,57.03
2017-03-11T13:37:17.658Z,56.65
2017-03-11T13:38:26.671Z,56.84
2017-03-11T13:39:36.049Z,56.84
2017-03-11T13:40:45.047Z,57.03
2017-03-11T13:41:54.151Z,57.24
2017-03-11T13:43:03.176Z,56.77
2017-03-11T13:44:12.154Z,56.93
2017-03-11T13:45:21.451Z,57.12
2017-03-11T13:46:30.442Z,56.84
2017-03-11T13:47:39.432Z,57.12
2017-03-11T13:48:48.451Z,57.22
2017-03-11T13:49:57.521Z,56.55
2017-03-11T13:51:07.319Z,56.74
2017-03-11T13:52:16.314Z,56.07
2017-03-11T13:53:25.383Z,56.07
2017-03-11T13:54:34.550Z,56.65
2017-03-11T13:55:43.625Z,56.46
2017-03-11T13:56:52.880Z,56.84
2017-03-11T13:58:01.979Z,57.57
2017-03-11T13:59:10.985Z,57.38
2017-03-11T14:00:19.981Z,57.57
2017-03-11T14:01:29.424Z,57.09
2017-03-11T14:02:38.666Z,57.19
2017-03-11T14:03:47.664Z,57.48
2017-03-11T14:04:56.664Z,57.86
2017-03-11T14:06:05.650Z,57.67
2017-03-11T14:07:14.718Z,57.28
2017-03-11T14:08:24.020Z,57.48
2017-03-11T14:09:33.021Z,57.38
2017-03-11T14:10:42.433Z,57.38
2017-03-11T14:11:51.698Z,57.48
2017-03-11T14:13:00.691Z,57.48
2017-03-11T14:14:10.082Z,57.19
2017-03-11T14:15:19.075Z,56.71
2017-03-11T14:16:28.097Z,56.14
2017-03-11T14:17:37.094Z,56.04
2017-03-11T14:18:46.081Z,56.04
2017-03-11T14:19:55.372Z,55.47
2017-03-11T14:21:04.390Z,54.9
2017-03-11T14:22:13.465Z,54.61
2017-03-11T14:23:22.466Z,54.43
2017-03-11T14:24:31.942Z,54.14
2017-03-11T14:25:41.207Z,54.43
2017-03-11T14:26:50.602Z,55.09
2017-03-11T14:27:59.599Z,54.33
2017-03-11T14:29:08.576Z,53.85
2017-03-11T14:30:17.567Z,53.78
2017-03-11T14:31:26.815Z,53.88
2017-03-11T14:32:35.880Z,53.12
2017-03-11T14:33:44.917Z,52.36
2017-03-11T14:34:53.916Z,52.07
2017-03-11T14:36:02.931Z,52.07
2017-03-11T14:37:12.256Z,51.88
2017-03-11T14:38:21.260Z,51.5
2017-03-11T14:39:30.243Z,51.23
2017-03-11T14:40:39.318Z,50.85
2017-03-11T14:41:48.313Z,50.76
2017-03-11T14:42:57.558Z,50.47
2017-03-11T14:44:06.539Z,50.85
2017-03-11T14:45:15.526Z,51.43
2017-03-11T14:46:24.680Z,51.43
2017-03-11T14:47:33.776Z,51.43
2017-03-11T14:48:43.079Z,51.52
2017-03-11T14:49:52.280Z,52.09
2017-03-11T14:51:01.274Z,51.62
2017-03-11T14:52:10.275Z,51.43
2017-03-11T14:53:19.255Z,51.62
2017-03-11T14:54:28.609Z,51.62
2017-03-11T14:55:37.689Z,51.43
2017-03-11T14:56:46.871Z,51.33
2017-03-11T14:57:55.874Z,51.52
2017-03-11T14:59:04.869Z,50.76
2017-03-11T15:00:14.132Z,50.95